createdAt,value
2018-05-16T00:00:23.549Z,49.84
2018-05-16T00:01:04.016Z,49.36
2018-05-16T00:01:44.421Z,49.55
2018-05-16T00:02:24.895Z,49.46
2018-05-16T00:03:05.411Z,49.55
2018-05-16T00:03:45.657Z,49.46
2018-05-16T00:04:26.447Z,49.84
2018-05-16T00:05:06.888Z,49.94
2018-05-16T00:05:47.284Z,50.04
2018-05-16T00:06:27.685Z,50.04
2018-05-16T00:07:08.116Z,49.17
2018-05-16T00:07:48.749Z,49.46
2018-05-16T00:08:29.150Z,49.65
2018-05-16T00:09:09.558Z,49.94
2018-05-16T00:09:50.181Z,49.94
2018-05-16T00:10:35.822Z,49.36
2018-05-16T00:11:16.478Z,49.36
2018-05-16T00:11:57.412Z,49.46
2018-05-16T00:12:40.068Z,50.01
2018-05-16T00:13:20.576Z,50.1
2018-05-16T00:14:00.985Z,50.1
2018-05-16T00:14:41.392Z,49.82
2018-05-16T00:15:21.778Z,50.04
2018-05-16T00:16:03.572Z,50.01
2018-05-16T00:16:43.030Z,49.91
2018-05-16T00:17:23.558Z,50.1
2018-05-16T00:18:03.990Z,50.3
2018-05-16T00:18:45.044Z,50.04
2018-05-16T00:19:25.284Z,49.94
2018-05-16T00:20:06.024Z,49.65
2018-05-16T00:20:46.480Z,49.91
2018-05-16T00:21:26.957Z,50.3
2018-05-16T00:22:09.907Z,49.82
2018-05-16T00:22:50.331Z,50.1
2018-05-16T00:23:30.782Z,49.91
2018-05-16T00:24:11.175Z,50.01
2018-05-16T00:24:51.555Z,50.2
2018-05-16T00:25:32.041Z,50.2
2018-05-16T00:26:12.973Z,50.87
2018-05-16T00:26:53.900Z,50.4
2018-05-16T00:27:34.460Z,50.01
2018-05-16T00:28:14.755Z,50.01
2018-05-16T00:28:55.210Z,50.49
2018-05-16T00:29:35.509Z,50.49
2018-05-16T00:30:16.073Z,50.49
2018-05-16T00:30:56.624Z,50.59
2018-05-16T00:31:37.041Z,50.78
2018-05-16T00:32:17.447Z,50.49
2018-05-16T00:32:58.399Z,50.87
2018-05-16T00:33:38.430Z,50.87
2018-05-16T00:34:18.803Z,50.78
2018-05-16T00:34:59.438Z,50.68
2018-05-16T00:35:41.104Z,50.97
2018-05-16T00:36:21.292Z,50.78
2018-05-16T00:37:02.002Z,50.87
2018-05-16T00:37:42.422Z,50.68
2018-05-16T00:38:23.087Z,50.59
2018-05-16T00:39:06.393Z,50.49
2018-05-16T00:39:46.297Z,50.68
2018-05-16T00:40:26.942Z,51.07
2018-05-16T00:41:07.534Z,51.07
2018-05-16T00:41:48.002Z,50.87
2018-05-16T00:42:29.404Z,50.78
2018-05-16T00:43:09.645Z,50.87
2018-05-16T00:43:50.403Z,50.87
2018-05-16T00:44:31.162Z,50.78
2018-05-16T00:45:11.459Z,50.68
2018-05-16T00:45:51.929Z,50.97
2018-05-16T00:47:54.819Z,50.87
2018-05-16T00:48:34.803Z,50.87
2018-05-16T00:49:15.211Z,50.59
2018-05-16T00:49:55.971Z,50.97
2018-05-16T00:50:36.280Z,50.78
2018-05-16T00:51:17.423Z,50.68
2018-05-16T00:51:58.136Z,50.68
2018-05-16T00:52:38.481Z,50.87
2018-05-16T00:53:19.239Z,51.84
2018-05-16T00:54:01.059Z,51.55
2018-05-16T00:54:42.391Z,51.55
2018-05-16T00:55:30.159Z,51.07
2018-05-16T00:56:11.825Z,51.74
2018-05-16T00:56:52.215Z,51.55
2018-05-16T00:57:37.155Z,51.35
2018-05-16T00:58:17.585Z,51.84
2018-05-16T00:59:01.474Z,51.35
2018-05-16T00:59:41.994Z,51.35
2018-05-16T01:00:26.197Z,51.55
2018-05-16T01:01:11.161Z,52.22
2018-05-16T01:03:11.256Z,52.42
2018-05-16T01:03:51.766Z,52.51
2018-05-16T01:04:32.217Z,52.42
2018-05-16T01:05:18.562Z,52.99
2018-05-16T01:05:59.168Z,52.51
2018-05-16T01:06:41.299Z,52.77
2018-05-16T01:07:29.440Z,52.58
2018-05-16T01:08:10.167Z,52.68
2018-05-16T01:08:52.116Z,53.06
2018-05-16T01:09:36.713Z,53.06
2018-05-16T01:10:18.583Z,53.25
2018-05-16T01:11:02.002Z,53.54
2018-05-16T01:16:04.054Z,53.83
2018-05-16T01:18:07.382Z,53.83
2018-05-16T01:18:51.923Z,53.74
2018-05-16T01:19:32.219Z,53.92
2018-05-16T01:20:12.590Z,53.64
2018-05-16T01:20:53.344Z,53.64
2018-05-16T01:21:33.674Z,53.83
2018-05-16T01:22:14.347Z,54.22
2018-05-16T01:22:54.790Z,53.92
2018-05-16T01:23:35.227Z,53.64
2018-05-16T01:24:15.944Z,53.64
2018-05-16T01:24:57.866Z,54.22
2018-05-16T01:25:38.921Z,54.12
2018-05-16T01:26:19.246Z,54.12
2018-05-16T01:26:59.740Z,54.5
2018-05-16T01:27:40.227Z,54.5
2018-05-16T01:28:20.927Z,54.12
2018-05-16T01:29:01.301Z,54.02
2018-05-16T01:29:41.690Z,54.02
2018-05-16T01:30:22.133Z,54.02
2018-05-16T01:31:03.541Z,54.02
2018-05-16T01:31:44.352Z,54.22
2018-05-16T01:32:36.067Z,54.69
2018-05-16T01:33:16.603Z,54.69
2018-05-16T01:34:04.162Z,54.99
2018-05-16T01:34:44.637Z,54.89
2018-05-16T01:35:24.993Z,54.69
2018-05-16T01:36:09.591Z,55.18
2018-05-16T01:36:52.419Z,55.08
2018-05-16T01:37:32.785Z,54.89
2018-05-16T01:38:13.312Z,54.79
2018-05-16T01:38:55.780Z,55.08
2018-05-16T01:41:26.603Z,54.89
2018-05-16T01:43:18.013Z,55.27
2018-05-16T01:43:58.097Z,55.27
2018-05-16T01:44:38.441Z,55.56
2018-05-16T01:45:18.913Z,55.66
2018-05-16T01:45:59.389Z,55.56
2018-05-16T01:46:39.764Z,55.56
2018-05-16T01:47:20.226Z,56.52
2018-05-16T01:48:01.087Z,56.33
2018-05-16T01:48:41.570Z,56.43
2018-05-16T01:49:23.923Z,56.14
2018-05-16T01:50:06.045Z,56.49
2018-05-16T01:50:48.043Z,57.07
2018-05-16T01:51:31.330Z,58.48
2018-05-16T01:52:14.490Z,58.96
2018-05-16T01:52:58.021Z,59.73
2018-05-16T01:53:38.153Z,60.02
2018-05-16T01:54:18.553Z,59.73
2018-05-16T01:54:59.081Z,59.92
2018-05-16T01:55:44.073Z,60.08
2018-05-16T01:56:27.407Z,60.85
2018-05-16T01:57:07.749Z,60.57
2018-05-16T01:57:48.090Z,61.33
2018-05-16T01:58:28.703Z,61.52
2018-05-16T01:59:10.939Z,62.1
2018-05-16T01:59:51.376Z,61.88
2018-05-16T02:00:33.484Z,62.16
2018-05-16T02:01:13.897Z,62.07
2018-05-16T02:01:54.384Z,61.98
2018-05-16T02:02:34.791Z,62.16
2018-05-16T02:03:15.214Z,62.36
2018-05-16T02:03:58.682Z,62.26
2018-05-16T02:04:39.375Z,62.65
2018-05-16T02:07:03.058Z,63.51
2018-05-16T02:12:11.610Z,65.62
2018-05-16T02:13:00.414Z,66.26
2018-05-16T02:13:40.609Z,66.64
2018-05-16T02:16:20.629Z,67.32
2018-05-16T02:17:00.941Z,67.79
2018-05-16T02:17:41.471Z,68.27
2018-05-16T02:18:22.145Z,68.46
2018-05-16T02:19:02.503Z,69.04
2018-05-16T02:19:43.008Z,69.42
2018-05-16T02:20:23.407Z,69.33
2018-05-16T02:21:03.998Z,69.71
2018-05-16T02:21:44.326Z,69.81
2018-05-16T02:22:26.110Z,69.52
2018-05-16T02:23:09.169Z,70.76
2018-05-16T02:23:50.182Z,69.62
2018-05-16T02:24:30.989Z,70.67
2018-05-16T02:25:12.496Z,70.96
2018-05-16T02:25:54.601Z,71.63
2018-05-16T02:26:38.534Z,72.55
2018-05-16T02:27:39.429Z,72.84
2018-05-16T02:28:21.085Z,73.7
2018-05-16T02:29:01.876Z,72.94
2018-05-16T02:29:42.646Z,73.32
2018-05-16T02:30:23.742Z,74.27
2018-05-16T02:31:09.581Z,75.33
2018-05-16T03:46:58.121Z,84.11
2018-05-16T03:47:38.436Z,84.3
2018-05-16T03:48:18.840Z,84.01
2018-05-16T03:48:59.236Z,84.3
2018-05-16T03:49:39.631Z,84.11
2018-05-16T03:50:20.069Z,84.2
2018-05-16T03:51:00.447Z,83.92
2018-05-16T03:51:40.889Z,84.39
2018-05-16T03:52:21.343Z,84.2
2018-05-16T03:53:01.638Z,84.3
2018-05-16T03:53:42.077Z,84.39
2018-05-16T03:54:22.472Z,83.63
2018-05-16T03:55:02.883Z,83.82
2018-05-16T03:55:43.283Z,83.72
2018-05-16T03:56:23.655Z,83.53
2018-05-16T03:59:46.034Z,83.15
2018-05-16T04:01:33.811Z,82.67
2018-05-16T04:02:14.158Z,83
2018-05-16T04:02:54.536Z,83
2018-05-16T04:03:34.895Z,83.09
2018-05-16T04:41:26.552Z,86.84
2018-05-16T04:42:06.881Z,87.03
2018-05-16T04:44:19.878Z,86.55
2018-05-16T04:45:00.183Z,86.74
2018-05-16T04:46:48.896Z,86.65
2018-05-16T04:47:29.276Z,86.55
2018-05-16T04:48:09.719Z,86.65
2018-05-16T04:48:50.137Z,86.27
2018-05-16T04:49:30.501Z,85.79
2018-05-16T05:00:38.615Z,82.48
2018-05-16T05:01:18.945Z,81.37
2018-05-16T05:01:59.386Z,81.56
2018-05-16T05:02:39.762Z,81.75
2018-05-16T05:03:20.215Z,82.04
2018-05-16T05:04:00.577Z,82.04
2018-05-16T05:04:40.969Z,81.46
2018-05-16T05:05:21.414Z,80.45
2018-05-16T05:06:01.757Z,79.97
2018-05-16T05:06:42.168Z,79.39
2018-05-16T05:07:22.571Z,79.01
2018-05-16T05:08:02.932Z,78.77
2018-05-16T05:08:43.359Z,78.9
2018-05-16T05:09:23.764Z,77.69
2018-05-16T05:10:04.209Z,76.06
2018-05-16T05:10:44.626Z,74.55
2018-05-16T05:11:25.012Z,72.86
2018-05-16T05:12:05.407Z,72
2018-05-16T05:12:45.863Z,70.4
2018-05-16T05:13:26.259Z,69.18
2018-05-16T05:14:06.634Z,68.51
2018-05-16T05:14:47.037Z,68.06
2018-05-16T05:15:27.446Z,67.39
2018-05-16T05:16:07.863Z,66.71
2018-05-16T05:16:48.226Z,66.17
2018-05-16T05:17:28.665Z,66.07
2018-05-16T05:18:09.077Z,64.37
2018-05-16T05:18:49.515Z,63.5
2018-05-16T05:19:29.851Z,62.76
2018-05-16T05:20:10.271Z,61.8
2018-05-16T05:20:50.618Z,60.58
2018-05-16T05:21:31.042Z,59.71
2018-05-16T05:22:11.488Z,59.8
2018-05-16T05:22:51.972Z,59.71
2018-05-16T05:23:32.377Z,59.61
2018-05-16T05:24:12.766Z,59.32
2018-05-16T05:24:53.173Z,58.58
2018-05-16T05:25:33.528Z,58
2018-05-16T05:26:13.994Z,57.64
2018-05-16T05:26:54.351Z,57.16
2018-05-16T05:27:49.543Z,56.22
2018-05-16T05:28:29.984Z,55.65
2018-05-16T05:29:10.412Z,54.32
2018-05-16T05:29:50.848Z,53.45
2018-05-16T05:30:31.249Z,52.51
2018-05-16T05:31:11.665Z,52.24
2018-05-16T05:31:52.113Z,51.56
2018-05-16T05:32:32.504Z,51.28
2018-05-16T05:33:12.873Z,50.6
2018-05-16T05:33:53.306Z,50.33
2018-05-16T05:34:33.699Z,49.65
2018-05-16T05:35:14.129Z,49.37
2018-05-16T05:35:54.485Z,48.88
2018-05-16T05:36:34.939Z,48.81
2018-05-16T05:37:15.330Z,48.9
2018-05-16T05:37:55.769Z,48.52
2018-05-16T05:38:36.202Z,48.71
2018-05-16T05:39:16.609Z,48.61
2018-05-16T05:39:57.009Z,48.42
2018-05-16T05:40:37.422Z,47.36
2018-05-16T05:41:17.835Z,47.45
2018-05-16T05:41:58.267Z,48.32
2018-05-16T05:42:38.764Z,47.96
2018-05-16T05:43:19.185Z,47.67
2018-05-16T05:43:59.588Z,47.19
2018-05-16T05:44:39.982Z,47.38
2018-05-16T05:45:20.416Z,47.19
2018-05-16T05:46:00.787Z,47.16
2018-05-16T05:46:41.859Z,46.87
2018-05-16T05:47:21.909Z,47.09
2018-05-16T05:48:02.412Z,46.8
2018-05-16T05:48:42.838Z,46.99
2018-05-16T05:49:23.326Z,47.02
2018-05-16T05:50:03.707Z,46.62
2018-05-16T05:50:44.202Z,46.14
2018-05-16T05:51:24.606Z,45.85
2018-05-16T05:52:05.003Z,45.58
2018-05-16T05:52:45.397Z,44.51
2018-05-16T05:54:58.553Z,44.73
2018-05-16T05:55:38.991Z,43.66
2018-05-16T05:56:19.460Z,43.27
2018-05-16T05:56:59.845Z,43.18
2018-05-16T05:57:40.197Z,43.01
2018-05-16T05:58:20.605Z,42.91
2018-05-16T05:59:01.009Z,42.35
2018-05-16T05:59:41.390Z,42.05
2018-05-16T06:00:21.971Z,41.67
2018-05-16T06:01:02.478Z,41.69
2018-05-16T06:01:42.869Z,41.39
2018-05-16T06:02:23.386Z,40.52
2018-05-16T06:03:03.777Z,40.33
2018-05-16T06:03:44.206Z,40.81
2018-05-16T06:04:24.674Z,40.72
2018-05-16T06:05:05.117Z,40.81
2018-05-16T06:05:45.525Z,40.52
2018-05-16T06:06:25.896Z,40.62
2018-05-16T06:07:06.330Z,40.25
2018-05-16T06:07:46.831Z,39.67
2018-05-16T06:08:27.231Z,39.67
2018-05-16T06:09:07.677Z,39.86
2018-05-16T06:09:48.049Z,39.96
2018-05-16T06:10:28.476Z,39.76
2018-05-16T06:11:08.904Z,39.1
2018-05-16T06:11:49.313Z,39
2018-05-16T06:12:29.657Z,39.39
2018-05-16T06:13:10.116Z,38.64
2018-05-16T06:13:50.510Z,38.34
2018-05-16T06:14:30.999Z,38.34
2018-05-16T06:15:11.375Z,38.24
2018-05-16T06:15:53.245Z,37.76
2018-05-16T06:16:33.469Z,37.37
2018-05-16T06:17:13.800Z,37.46
2018-05-16T06:17:54.262Z,37.66
2018-05-16T06:18:34.644Z,38.34
2018-05-16T06:19:15.077Z,37.85
2018-05-16T06:19:55.633Z,37.85
2018-05-16T06:20:36.226Z,37.56
2018-05-16T06:21:16.653Z,37.66
2018-05-16T06:21:57.179Z,37.66
2018-05-16T06:22:37.535Z,37.85
2018-05-16T06:23:17.901Z,36.98
2018-05-16T06:23:58.350Z,37.29
2018-05-16T06:24:38.751Z,36.71
2018-05-16T06:25:19.260Z,36.98
2018-05-16T06:25:59.640Z,36.4
2018-05-16T06:26:40.082Z,36.79
2018-05-16T06:27:20.734Z,36.47
2018-05-16T06:28:01.021Z,37.64
2018-05-16T06:28:41.424Z,37.54
2018-05-16T06:29:21.863Z,37.45
2018-05-16T06:30:02.233Z,37.16
2018-05-16T06:30:42.807Z,36.87
2018-05-16T06:31:23.227Z,37.54
2018-05-16T06:32:03.604Z,37.74
2018-05-16T06:32:44.138Z,37.54
2018-05-16T06:33:24.518Z,37.64
2018-05-16T06:35:42.577Z,37.45
2018-05-16T06:36:22.906Z,37.35
2018-05-16T06:37:03.334Z,37.35
2018-05-16T06:37:44.658Z,37.08
2018-05-16T06:38:26.082Z,37.08
2018-05-16T06:39:06.588Z,37.27
2018-05-16T06:39:47.170Z,36.96
2018-05-16T06:40:27.769Z,37.06
2018-05-16T06:41:08.554Z,37.52
2018-05-16T06:41:48.942Z,37.54
2018-05-16T06:42:29.395Z,37.45
2018-05-16T06:43:09.869Z,37.35
2018-05-16T06:43:50.317Z,37.54
2018-05-16T06:46:03.601Z,37.52
2018-05-16T06:46:43.914Z,38.21
2018-05-16T06:47:24.303Z,38.5
2018-05-16T06:48:04.764Z,38.21
2018-05-16T06:48:45.168Z,38.31
2018-05-16T06:49:25.637Z,38.89
2018-05-16T06:50:06.075Z,38.7
2018-05-16T06:50:46.480Z,38.6
2018-05-16T06:51:26.914Z,38.21
2018-05-16T06:52:07.295Z,39.16
2018-05-16T06:52:47.757Z,38.67
2018-05-16T06:53:28.212Z,39.06
2018-05-16T06:54:08.572Z,39.45
2018-05-16T06:54:49.006Z,38.57
2018-05-16T06:55:29.519Z,38.19
2018-05-16T06:56:10.162Z,39.16
2018-05-16T06:56:50.686Z,38.96
2018-05-16T06:57:31.085Z,39.16
2018-05-16T06:58:11.764Z,39.43
2018-05-16T06:58:52.146Z,39.45
2018-05-16T06:59:32.581Z,38.96
2018-05-16T07:00:13.056Z,38.48
2018-05-16T07:00:53.837Z,39.26
2018-05-16T07:01:34.237Z,38.87
2018-05-16T07:02:14.767Z,39.45
2018-05-16T07:02:55.229Z,38.79
2018-05-16T07:03:35.792Z,38.79
2018-05-16T07:04:16.275Z,38.6
2018-05-16T07:04:56.681Z,38.79
2018-05-16T07:05:37.225Z,38.4
2018-05-16T07:06:32.412Z,38.21
2018-05-16T07:07:12.834Z,38.5
2018-05-16T07:08:00.200Z,37.92
2018-05-16T07:08:40.600Z,37.82
2018-05-16T07:09:35.927Z,38.21
2018-05-16T07:13:01.248Z,38.31
2018-05-16T07:13:41.413Z,37.6
2018-05-16T07:14:22.762Z,37.43
2018-05-16T07:15:04.815Z,37.41
2018-05-16T07:15:44.834Z,37.6
2018-05-16T07:16:25.535Z,37.32
2018-05-16T07:17:06.020Z,37.72
2018-05-16T07:17:46.731Z,37.52
2018-05-16T07:18:27.300Z,37.14
2018-05-16T07:19:07.831Z,37.62
2018-05-16T07:19:49.145Z,37.6
2018-05-16T07:20:29.573Z,36.75
2018-05-16T07:21:10.081Z,36.55
2018-05-16T07:21:50.504Z,36.46
2018-05-16T07:22:30.935Z,36.85
2018-05-16T07:23:11.539Z,36.65
2018-05-16T07:23:52.378Z,37.04
2018-05-16T07:24:33.645Z,36.94
2018-05-16T07:25:14.320Z,37.16
2018-05-16T07:25:54.872Z,37.24
2018-05-16T07:26:35.299Z,37.06
2018-05-16T07:27:15.878Z,36.38
2018-05-16T07:27:56.309Z,36.38
2018-05-16T07:28:36.736Z,36.38
2018-05-16T07:29:17.991Z,36.38
2018-05-16T07:29:59.193Z,35.39
2018-05-16T07:30:39.852Z,35.78
2018-05-16T07:31:20.202Z,35.86
2018-05-16T07:32:02.791Z,35.96
2018-05-16T07:32:42.782Z,35.86
2018-05-16T07:33:23.378Z,36.63
2018-05-16T07:34:03.922Z,36.73
2018-05-16T07:34:45.768Z,36.36
2018-05-16T07:36:17.180Z,35.76
2018-05-16T07:36:59.804Z,36.34
2018-05-16T07:37:40.795Z,36.34
2018-05-16T07:38:20.728Z,35.96
2018-05-16T07:39:01.850Z,36.24
2018-05-16T07:39:42.382Z,36.54
2018-05-16T07:40:23.147Z,37.34
2018-05-16T07:41:05.212Z,36.54
2018-05-16T07:41:45.977Z,36.36
2018-05-16T07:42:27.235Z,36.93
2018-05-16T07:43:09.604Z,37.02
2018-05-16T07:43:49.933Z,37.02
2018-05-16T07:44:31.071Z,37.22
2018-05-16T07:46:28.264Z,38.07
2018-05-16T07:48:54.178Z,38.15
2018-05-16T07:49:34.098Z,38.75
2018-05-16T07:50:15.847Z,38.56
2018-05-16T07:50:56.669Z,37.98
2018-05-16T07:51:41.031Z,37.88
2018-05-16T07:52:20.887Z,37.88
2018-05-16T07:53:02.490Z,38.07
2018-05-16T07:53:42.372Z,37.99
2018-05-16T07:54:23.487Z,37.22
2018-05-16T07:55:05.989Z,37.51
2018-05-16T07:55:45.938Z,37.32
2018-05-16T07:56:26.436Z,37.02
2018-05-16T07:57:07.202Z,36.93
2018-05-16T07:57:48.482Z,35.97
2018-05-16T07:58:28.935Z,36.65
2018-05-16T07:59:09.734Z,36.46
2018-05-16T07:59:50.536Z,36.75
2018-05-16T08:00:31.279Z,36.54
2018-05-16T08:01:11.866Z,36.36
2018-05-16T08:01:52.467Z,36.46
2018-05-16T08:02:32.971Z,36.36
2018-05-16T08:03:14.239Z,36.55
2018-05-16T08:03:55.968Z,36.65
2018-05-16T08:04:37.326Z,36.16
2018-05-16T08:05:17.866Z,36.26
2018-05-16T08:05:58.766Z,35.88
2018-05-16T08:06:39.009Z,36.16
2018-05-16T08:07:19.547Z,35.88
2018-05-16T08:08:00.939Z,35.97
2018-05-16T08:08:41.372Z,35.89
2018-05-16T08:09:22.963Z,35.89
2018-05-16T08:10:05.600Z,35.99
2018-05-16T08:10:46.343Z,35.6
2018-05-16T08:11:26.947Z,35.89
2018-05-16T08:12:09.296Z,35.42
2018-05-16T08:12:50.049Z,35.31
2018-05-16T08:13:30.443Z,35.81
2018-05-16T08:14:11.029Z,34.74
2018-05-16T08:14:51.755Z,35.41
2018-05-16T08:15:32.282Z,35.6
2018-05-16T08:16:13.226Z,35.41
2018-05-16T08:16:54.461Z,35.41
2018-05-16T08:17:35.819Z,35.89
2018-05-16T08:18:16.385Z,35.6
2018-05-16T08:18:56.857Z,35.7
2018-05-16T08:19:37.705Z,36.08
2018-05-16T08:20:19.033Z,35.5
2018-05-16T08:21:00.399Z,35.8
2018-05-16T08:21:40.951Z,35.7
2018-05-16T08:22:25.166Z,35.91
2018-05-16T08:24:24.026Z,34.27
2018-05-16T08:25:04.812Z,34.76
2018-05-16T08:25:46.182Z,35.05
2018-05-16T08:26:26.116Z,34.37
2018-05-16T08:27:06.533Z,34.17
2018-05-16T08:27:47.496Z,34.08
2018-05-16T08:28:28.108Z,34.06
2018-05-16T08:29:09.192Z,34.16
2018-05-16T08:29:49.855Z,34.25
2018-05-16T08:30:30.412Z,34.45
2018-05-16T08:31:10.638Z,34.84
2018-05-16T08:31:52.074Z,34.64
2018-05-16T08:32:31.877Z,34.16
2018-05-16T08:33:12.387Z,34.25
2018-05-16T08:33:52.906Z,34.25
2018-05-16T08:34:33.485Z,34.27
2018-05-16T08:35:14.049Z,34.27
2018-05-16T08:35:55.602Z,34.45
2018-05-16T08:37:48.772Z,35.6
2018-05-16T08:38:30.328Z,35.6
2018-05-16T08:42:20.098Z,34.92
2018-05-16T08:43:00.349Z,34.82
2018-05-16T08:43:40.592Z,34.92
2018-05-16T08:44:20.976Z,35.29
2018-05-16T08:45:01.363Z,35.39
2018-05-16T08:45:41.824Z,35.68
2018-05-16T08:46:22.322Z,35.29
2018-05-16T08:47:02.757Z,35.68
2018-05-16T08:47:43.159Z,35.58
2018-05-16T08:48:23.800Z,35.97
2018-05-16T08:49:04.207Z,35.97
2018-05-16T08:49:44.663Z,35.97
2018-05-16T08:50:25.088Z,36.07
2018-05-16T08:51:05.573Z,35.78
2018-05-16T08:51:46.005Z,35.5
2018-05-16T08:52:26.460Z,35.7
2018-05-16T08:53:06.849Z,35.5
2018-05-16T08:53:47.644Z,35.41
2018-05-16T08:54:28.884Z,35.31
2018-05-16T08:55:08.935Z,35.41
2018-05-16T08:55:49.798Z,34.45
2018-05-16T08:56:30.295Z,34.76
2018-05-16T08:57:10.705Z,34.37
2018-05-16T08:57:51.147Z,34.27
2018-05-16T08:58:32.219Z,33.59
2018-05-16T08:59:12.709Z,33.49
2018-05-16T08:59:53.195Z,33.01
2018-05-16T09:00:33.717Z,34.16
2018-05-16T09:01:14.541Z,34.25
2018-05-16T09:01:54.929Z,34.35
2018-05-16T09:02:35.788Z,34.24
2018-05-16T09:03:16.685Z,34.33
2018-05-16T09:03:57.430Z,35.19
2018-05-16T09:04:38.045Z,35.8
2018-05-16T09:05:18.707Z,35.78
2018-05-16T09:05:59.150Z,35.39
2018-05-16T09:06:39.897Z,35.31
2018-05-16T09:07:21.200Z,35.88
2018-05-16T09:08:01.616Z,35.97
2018-05-16T09:08:43.201Z,35.88
2018-05-16T09:09:23.604Z,36.54
2018-05-16T09:10:03.742Z,36.63
2018-05-16T09:10:44.486Z,37.41
2018-05-16T09:11:25.672Z,37.6
2018-05-16T09:12:05.936Z,37.49
2018-05-16T09:12:46.704Z,37.59
2018-05-16T09:13:27.581Z,37.88
2018-05-16T09:14:08.459Z,38.07
2018-05-16T09:14:49.793Z,38.19
2018-05-16T09:15:31.283Z,37.51
2018-05-16T09:16:11.367Z,37.02
2018-05-16T09:16:53.413Z,37.12
2018-05-16T09:17:34.170Z,36.93
2018-05-16T09:18:15.707Z,36.94
2018-05-16T09:18:56.238Z,36.46
2018-05-16T09:19:36.857Z,36.46
2018-05-16T09:20:18.732Z,35.89
2018-05-16T09:20:58.423Z,35.7
2018-05-16T09:21:39.561Z,35.33
2018-05-16T09:22:20.333Z,35.52
2018-05-16T09:23:00.865Z,34.95
2018-05-16T09:23:41.445Z,34.56
2018-05-16T09:24:22.157Z,34.09
2018-05-16T09:25:02.585Z,33.51
2018-05-16T09:25:43.445Z,33.61
2018-05-16T09:26:23.840Z,33.43
2018-05-16T09:27:04.299Z,31.96
2018-05-16T09:27:44.777Z,31.96
2018-05-16T09:28:25.350Z,32.16
2018-05-16T09:29:06.698Z,32.37
2018-05-16T09:29:46.792Z,32.37
2018-05-16T09:30:27.443Z,31.96
2018-05-16T09:31:08.016Z,32.06
2018-05-16T09:31:48.443Z,32.35
2018-05-16T09:32:28.890Z,32.35
2018-05-16T09:33:09.579Z,31.96
2018-05-16T09:33:51.021Z,32.06
2018-05-16T09:34:31.429Z,32.45
2018-05-16T09:35:11.829Z,32.06
2018-05-16T09:35:52.292Z,32.15
2018-05-16T09:36:32.849Z,32.55
2018-05-16T09:37:13.938Z,32.45
2018-05-16T09:37:55.255Z,32.84
2018-05-16T09:38:35.626Z,32.55
2018-05-16T09:39:16.033Z,32.06
2018-05-16T09:39:56.725Z,32.16
2018-05-16T09:40:37.120Z,32.16
2018-05-16T09:41:17.758Z,32.06
2018-05-16T09:41:58.233Z,32.16
2018-05-16T09:42:38.660Z,32.45
2018-05-16T09:43:19.320Z,32.06
2018-05-16T09:45:33.952Z,33.2
2018-05-16T09:46:14.371Z,33.29
2018-05-16T09:46:54.853Z,32.7
2018-05-16T09:47:35.488Z,33.58
2018-05-16T09:48:16.132Z,33.59
2018-05-16T09:49:01.130Z,34.17
2018-05-16T09:49:41.662Z,34.27
2018-05-16T09:50:22.436Z,34.08
2018-05-16T09:51:04.177Z,34.35
2018-05-16T09:51:45.817Z,34.35
2018-05-16T09:54:06.846Z,34.06
2018-05-16T09:57:25.490Z,35.5
2018-05-16T09:58:05.801Z,35.21
2018-05-16T09:58:45.884Z,35.68
2018-05-16T09:59:27.556Z,35.97
2018-05-16T10:00:07.684Z,35.88
2018-05-16T10:00:49.314Z,36.15
2018-05-16T10:01:28.967Z,36.46
2018-05-16T10:02:09.476Z,36.54
2018-05-16T10:02:50.189Z,37.02
2018-05-16T10:03:30.893Z,37.12
2018-05-16T10:42:14.339Z,37.96
2018-05-16T10:42:57.146Z,37.45
2018-05-16T10:45:48.412Z,38.02
2018-05-16T10:46:28.648Z,39.08
2018-05-16T10:47:09.675Z,39.06
2018-05-16T10:47:51.607Z,39.26
2018-05-16T10:48:32.395Z,39.55
2018-05-16T10:49:15.709Z,40.4
2018-05-16T10:49:56.078Z,40.21
2018-05-16T10:50:36.990Z,40.79
2018-05-16T10:51:19.420Z,40.31
2018-05-16T10:52:00.125Z,40.86
2018-05-16T10:52:41.525Z,41.55
2018-05-16T10:53:22.900Z,41.06
2018-05-16T10:54:03.740Z,41.64
2018-05-16T10:54:45.151Z,41.55
2018-05-16T10:55:26.729Z,41.64
2018-05-16T10:56:07.522Z,41.83
2018-05-16T10:56:48.555Z,41.62
2018-05-16T10:57:29.232Z,41.91
2018-05-16T10:58:10.976Z,42.13
2018-05-16T10:58:52.256Z,41.91
2018-05-16T10:59:39.134Z,42.9
2018-05-16T11:00:20.687Z,42.41
2018-05-16T11:01:02.154Z,41.74
2018-05-16T11:01:42.166Z,42.2
2018-05-16T11:02:22.487Z,42
2018-05-16T11:03:04.118Z,42.8
2018-05-16T11:03:45.607Z,42.68
2018-05-16T11:04:26.464Z,42.51
2018-05-16T11:05:10.141Z,42.51
2018-05-16T11:05:50.513Z,41.74
2018-05-16T11:06:31.919Z,41.52
2018-05-16T11:07:13.290Z,40.94
2018-05-16T11:07:54.232Z,41.72
2018-05-16T11:08:35.453Z,41.72
2018-05-16T11:09:16.548Z,42.08
2018-05-16T11:09:57.925Z,42.28
2018-05-16T11:10:39.035Z,42.08
2018-05-16T11:11:20.517Z,42.2
2018-05-16T11:12:00.935Z,42.28
2018-05-16T11:12:41.663Z,42.18
2018-05-16T11:13:23.129Z,42.57
2018-05-16T11:14:03.822Z,43.24
2018-05-16T11:14:44.371Z,43.05
2018-05-16T11:15:25.014Z,43.05
2018-05-16T11:16:05.614Z,43.34
2018-05-16T11:16:49.084Z,42.88
2018-05-16T11:17:29.642Z,42.88
2018-05-16T11:18:10.235Z,43.17
2018-05-16T11:18:50.782Z,42.66
2018-05-16T11:19:31.678Z,42.47
2018-05-16T11:20:12.196Z,42.08
2018-05-16T11:20:52.503Z,42.57
2018-05-16T11:21:33.544Z,42.66
2018-05-16T11:22:15.007Z,41.99
2018-05-16T11:22:55.497Z,42
2018-05-16T11:23:35.995Z,42.1
2018-05-16T11:24:16.379Z,41.72
2018-05-16T11:24:57.157Z,41.62
2018-05-16T11:25:37.769Z,41.72
2018-05-16T11:26:18.706Z,42
2018-05-16T11:27:01.246Z,41.62
2018-05-16T11:27:41.336Z,41.24
2018-05-16T11:28:21.855Z,41.6
2018-05-16T11:29:03.108Z,41.91
2018-05-16T11:29:45.704Z,42.66
2018-05-16T11:30:27.282Z,42.96
2018-05-16T11:31:08.041Z,41.91
2018-05-16T11:31:48.457Z,42.59
2018-05-16T11:32:28.970Z,42.3
2018-05-16T11:33:09.773Z,41.82
2018-05-16T11:33:50.330Z,41.52
2018-05-16T11:34:33.784Z,41.62
2018-05-16T11:35:15.395Z,41.62
2018-05-16T11:35:56.073Z,41.62
2018-05-16T11:36:37.030Z,41.82
2018-05-16T11:37:17.413Z,41.72
2018-05-16T11:37:58.531Z,41.62
2018-05-16T11:38:39.536Z,41.64
2018-05-16T11:39:20.403Z,41.06
2018-05-16T11:40:01.185Z,40.77
2018-05-16T11:40:42.154Z,41.55
2018-05-16T11:41:24.141Z,41.56
2018-05-16T11:42:07.871Z,41.08
2018-05-16T11:42:48.711Z,40.33
2018-05-16T11:43:30.189Z,40.03
2018-05-16T11:44:11.285Z,39.65
2018-05-16T11:44:51.730Z,39.47
2018-05-16T11:45:32.259Z,39.28
2018-05-16T11:46:14.539Z,38.12
2018-05-16T11:46:55.201Z,37.92
2018-05-16T11:48:43.960Z,37.73
2018-05-16T11:49:24.510Z,37.92
2018-05-16T11:50:05.277Z,37.63
2018-05-16T11:50:46.397Z,38.02
2018-05-16T11:51:29.715Z,38.31
2018-05-16T11:52:14.257Z,38.12
2018-05-16T11:52:59.836Z,38.7
2018-05-16T11:53:41.663Z,38.99
2018-05-16T11:54:22.312Z,39.28
2018-05-16T11:55:03.129Z,38.89
2018-05-16T11:55:44.542Z,39.28
2018-05-16T11:56:25.192Z,38.89
2018-05-16T11:57:10.421Z,38.89
2018-05-16T11:58:08.000Z,38.6
2018-05-16T12:00:17.896Z,38.02
2018-05-16T12:00:58.424Z,38.21
2018-05-16T12:01:39.036Z,37.82
2018-05-16T12:02:19.459Z,39.18
2018-05-16T12:02:59.941Z,38.99
2018-05-16T12:03:40.553Z,38.6
2018-05-16T12:04:21.069Z,39.08
2018-05-16T12:05:01.700Z,38.62
2018-05-16T12:05:42.244Z,38.7
2018-05-16T12:06:22.823Z,39.2
2018-05-16T12:07:03.623Z,38.5
2018-05-16T12:07:44.283Z,38.5
2018-05-16T12:08:24.888Z,38.6
2018-05-16T12:09:06.556Z,38.79
2018-05-16T12:09:47.556Z,38.7
2018-05-16T12:10:28.648Z,38.78
2018-05-16T12:11:09.092Z,39.65
2018-05-16T12:11:50.015Z,39.76
2018-05-16T12:12:30.701Z,39.76
2018-05-16T12:13:12.140Z,39.76
2018-05-16T12:13:53.798Z,39.67
2018-05-16T12:14:34.887Z,39.28
2018-05-16T12:15:17.666Z,38.89
2018-05-16T12:15:57.869Z,39.11
2018-05-16T12:16:38.561Z,38.81
2018-05-16T12:17:19.636Z,38.32
2018-05-16T12:17:59.956Z,38.32
2018-05-16T12:18:40.602Z,38.23
2018-05-16T12:19:21.272Z,37.84
2018-05-16T12:20:03.110Z,38.04
2018-05-16T12:20:44.078Z,38.04
2018-05-16T12:21:24.475Z,38.06
2018-05-16T12:22:05.255Z,38.06
2018-05-16T12:22:46.992Z,38.15
2018-05-16T12:23:27.609Z,37.47
2018-05-16T12:24:08.338Z,37.66
2018-05-16T12:24:50.552Z,37.86